Time;durP1;ratioP1;P1;durP2;ratioP2;P2;SDS_P1;SDS_P2;PMS_P1;PMS_P2;Temp;Humidity;BMP_temperature;BMP_pressure;BME280_temperature;BME280_humidity;BME280_pressure;Samples;Min_cycle;Max_cycle;Signal;HPM_P1;HPM_P2
2020/12/26 01:43:57;;;;;;;0.57;0.43;;;16.80;40.60;;;;;;6021101;23;20185;-80
2020/12/26 04:03:12;;;;;;;0.40;0.40;;;16.80;41.20;;;;;;6075440;23;20264;-80
2020/12/26 04:54:49;;;;;;;;;;;;;;;;;;;;;
2020/12/26 06:14:29;;;;;;;0.70;0.50;;;16.70;41.60;;;;;;6166654;23;20194;-79
2020/12/26 08:17:22;;;;;;;0.80;0.70;;;16.80;41.80;;;;;;6171088;23;20151;-81
2020/12/26 08:24:02;;;;;;;;;;;;;;;;;;;;;
2020/12/26 08:30:35;;;;;;;0.50;0.50;;;16.70;42.00;;;;;;5858099;24;20167;-81
2020/12/26 08:33:25;;;;;;;0.65;0.65;;;16.70;41.90;;;;;;5861200;24;20159;-81
2020/12/26 08:35:55;;;;;;;0.47;0.47;;;16.70;42.00;;;;;;5838245;24;20155;-81
2020/12/26 08:38:31;;;;;;;0.75;0.63;;;16.70;41.90;;;;;;5861121;24;20166;-81
2020/12/26 08:44:22;;;;;;;0.70;0.70;;;16.70;41.90;;;;;;5855987;24;20162;-81
2020/12/26 08:46:51;;;;;;;0.68;0.68;;;16.70;42.00;;;;;;5859850;24;20162;-77
2020/12/26 08:49:35;;;;;;;0.40;0.40;;;16.70;41.90;;;;;;5862910;24;20553;-80
2020/12/26 08:52:07;;;;;;;0.60;0.60;;;16.70;41.90;;;;;;5860342;24;20194;-82
2020/12/26 08:58:10;;;;;;;0.70;0.60;;;16.70;41.90;;;;;;5864978;24;20689;-82
2020/12/26 09:00:39;;;;;;;0.60;0.60;;;16.70;41.90;;;;;;5843148;24;20194;-82
2020/12/26 09:03:11;;;;;;;0.73;0.57;;;16.70;42.10;;;;;;5842351;24;20173;-81
2020/12/26 09:05:47;;;;;;;0.60;0.60;;;16.70;42.20;;;;;;5858701;23;20153;-82
2020/12/26 09:08:28;;;;;;;0.98;0.70;;;16.70;42.20;;;;;;6061407;23;20158;-82
2020/12/26 09:11:05;;;;;;;0.57;0.57;;;16.70;42.10;;;;;;6057202;23;20142;-82
2020/12/26 09:13:34;;;;;;;0.40;0.40;;;16.70;42.10;;;;;;6058397;23;20220;-82
2020/12/26 09:16:12;;;;;;;0.68;0.68;;;16.70;42.00;;;;;;6056479;23;20257;-83
2020/12/26 09:18:48;;;;;;;0.80;0.70;;;16.70;42.00;;;;;;6057124;23;20154;-82
2020/12/26 09:21:35;;;;;;;0.98;0.88;;;16.80;41.90;;;;;;6056782;23;20168;-81
2020/12/26 09:24:22;;;;;;;0.55;0.50;;;16.70;41.90;;;;;;6033184;23;20229;-81
2020/12/26 09:27:00;;;;;;;0.70;0.70;;;16.70;41.90;;;;;;6056557;23;20153;-84
2020/12/26 09:29:33;;;;;;;0.60;0.60;;;16.80;41.90;;;;;;6057107;23;20158;-82
2020/12/26 09:32:06;;;;;;;0.50;0.50;;;16.70;41.90;;;;;;6037289;23;20150;-82
2020/12/26 09:34:41;;;;;;;0.60;0.60;;;16.80;41.90;;;;;;6174862;23;20139;-82
2020/12/26 09:37:28;;;;;;;0.60;0.55;;;16.70;41.90;;;;;;6123588;23;20150;-80
2020/12/26 09:40:03;;;;;;;0.68;0.63;;;16.80;42.10;;;;;;6147795;23;20163;-81
2020/12/26 09:43:04;;;;;;;0.65;0.50;;;16.80;42.00;;;;;;6100168;23;20166;-82
2020/12/26 09:46:16;;;;;;;0.50;0.50;;;16.80;42.10;;;;;;6030576;23;20157;-83
2020/12/26 09:49:18;;;;;;;1.20;0.60;;;16.80;42.10;;;;;;6054102;23;20232;-80
2020/12/26 09:51:46;;;;;;;0.50;0.50;;;16.80;42.20;;;;;;6031914;23;20197;-79
2020/12/26 09:54:32;;;;;;;0.55;0.50;;;16.80;42.00;;;;;;6001587;23;20138;-79
2020/12/26 10:04:37;;;;;;;0.80;0.80;;;16.90;41.90;;;;;;6044719;23;20550;-79
2020/12/26 10:07:03;;;;;;;0.70;0.68;;;16.90;42.00;;;;;;6041676;23;20154;-79
2020/12/26 10:09:48;;;;;;;0.60;0.60;;;16.90;42.00;;;;;;6017494;23;20253;-79
2020/12/26 10:12:25;;;;;;;1.00;0.70;;;16.90;42.00;;;;;;6015593;23;20168;-78
2020/12/26 10:14:51;;;;;;;0.60;0.60;;;17.00;41.90;;;;;;5991423;23;20157;-78
2020/12/26 10:17:28;;;;;;;0.65;0.60;;;16.90;42.10;;;;;;6014503;23;20587;-79
2020/12/26 10:19:54;;;;;;;0.60;0.60;;;16.90;42.10;;;;;;6042263;23;20587;-78
2020/12/26 10:22:22;;;;;;;0.80;0.70;;;16.80;42.10;;;;;;6106541;23;20155;-80
2020/12/26 10:24:48;;;;;;;0.88;0.50;;;16.80;42.20;;;;;;6128471;23;20148;-79
2020/12/26 10:27:22;;;;;;;1.17;0.80;;;16.80;42.20;;;;;;6079445;23;20580;-79
2020/12/26 10:30:24;;;;;;;0.50;0.50;;;16.90;42.10;;;;;;6102758;23;20136;-79
2020/12/26 10:32:59;;;;;;;0.80;0.65;;;16.90;42.10;;;;;;6106724;23;20214;-79
2020/12/26 10:35:30;;;;;;;0.50;0.50;;;16.90;42.20;;;;;;6129822;23;20211;-79
2020/12/26 10:37:56;;;;;;;0.80;0.70;;;16.90;42.10;;;;;;6105667;23;20148;-79
2020/12/26 10:40:22;;;;;;;0.73;0.70;;;16.90;42.10;;;;;;6103976;23;20171;-79
2020/12/26 10:42:48;;;;;;;1.00;0.80;;;17.00;42.20;;;;;;6132632;23;20587;-79
2020/12/26 10:45:16;;;;;;;0.95;0.80;;;17.00;42.20;;;;;;6106157;23;20140;-79
2020/12/26 10:47:45;;;;;;;0.63;0.63;;;17.10;42.10;;;;;;6131945;23;20136;-79
2020/12/26 10:50:11;;;;;;;0.70;0.70;;;17.00;42.20;;;;;;6103232;23;20259;-79
2020/12/26 10:56:13;;;;;;;2.17;0.60;;;17.00;42.60;;;;;;6161483;23;20174;-78
2020/12/26 10:58:51;;;;;;;0.77;0.55;;;16.90;42.60;;;;;;6113095;23;20131;-79
2020/12/26 11:01:49;;;;;;;3.20;0.63;;;17.00;42.40;;;;;;6114076;23;20139;-79
2020/12/26 11:04:21;;;;;;;0.85;0.60;;;17.00;42.50;;;;;;6164352;23;20131;-79
2020/12/26 11:06:50;;;;;;;1.13;0.95;;;17.00;42.60;;;;;;6110785;23;20151;-78
2020/12/26 11:09:34;;;;;;;1.10;1.00;;;17.00;42.90;;;;;;6116123;23;20135;-80
2020/12/26 11:12:38;;;;;;;1.15;0.80;;;17.00;43.10;;;;;;6118526;23;20154;-79
2020/12/26 11:15:47;;;;;;;0.80;0.80;;;17.10;43.10;;;;;;6116952;23;20226;-79
2020/12/26 11:18:13;;;;;;;1.40;0.80;;;17.00;43.20;;;;;;6165855;23;20144;-78
2020/12/26 11:20:39;;;;;;;2.03;0.75;;;17.10;42.90;;;;;;6133065;23;20179;-78
2020/12/26 11:23:27;;;;;;;2.28;0.80;;;17.10;42.80;;;;;;6136875;23;20136;-79
2020/12/26 11:25:57;;;;;;;4.75;0.80;;;17.10;42.60;;;;;;6136161;23;20155;-81
2020/12/26 11:28:24;;;;;;;5.55;0.77;;;17.10;42.70;;;;;;6133803;23;20222;-79
2020/12/26 11:30:50;;;;;;;2.92;1.00;;;17.10;42.80;;;;;;6132788;23;20147;-77
2020/12/26 11:33:15;;;;;;;1.48;0.60;;;17.10;42.90;;;;;;6157008;23;20162;-77
2020/12/26 11:35:41;;;;;;;1.05;0.73;;;17.10;42.80;;;;;;6130821;23;20621;-78
2020/12/26 11:38:07;;;;;;;1.00;0.80;;;17.10;42.80;;;;;;6131358;23;20175;-78
2020/12/26 11:40:32;;;;;;;2.75;0.90;;;17.10;42.80;;;;;;6117920;23;20159;-80
2020/12/26 11:42:58;;;;;;;3.05;0.90;;;17.10;42.80;;;;;;6119276;23;20132;-78
2020/12/26 11:45:24;;;;;;;4.13;1.08;;;17.10;42.80;;;;;;6093309;23;20155;-79
2020/12/26 11:47:50;;;;;;;0.82;0.63;;;17.20;42.60;;;;;;6093705;23;20147;-78
2020/12/26 11:50:16;;;;;;;1.83;0.73;;;17.20;42.50;;;;;;6096888;23;20143;-79
2020/12/26 11:52:41;;;;;;;1.33;0.70;;;17.20;42.50;;;;;;6093738;23;20277;-81
2020/12/26 11:55:10;;;;;;;0.75;0.73;;;17.20;42.50;;;;;;6169282;23;20535;-81
2020/12/26 11:57:43;;;;;;;2.42;0.70;;;17.20;42.60;;;;;;6175816;23;20132;-83
2020/12/26 12:00:10;;;;;;;5.53;1.52;;;17.20;42.60;;;;;;6147447;23;20171;-80
2020/12/26 12:02:36;;;;;;;8.45;1.10;;;17.20;42.80;;;;;;6168286;23;20199;-82
2020/12/26 12:05:02;;;;;;;6.15;1.33;;;17.20;42.80;;;;;;6167766;23;20127;-82
2020/12/26 12:07:29;;;;;;;5.47;1.10;;;17.10;42.90;;;;;;6096075;23;20144;-81
2020/12/26 12:09:56;;;;;;;19.00;2.38;;;17.20;42.90;;;;;;6165060;23;20138;-81
2020/12/26 12:12:21;;;;;;;26.90;2.97;;;17.10;43.10;;;;;;6165981;23;20590;-81
2020/12/26 12:14:47;;;;;;;21.33;2.47;;;17.20;43.00;;;;;;6167013;23;20136;-82
2020/12/26 12:17:14;;;;;;;29.00;2.40;;;17.20;43.00;;;;;;6167362;23;20519;-81
2020/12/26 12:19:40;;;;;;;12.25;1.35;;;17.20;43.00;;;;;;6162639;23;20187;-80
2020/12/26 12:22:06;;;;;;;8.73;1.48;;;17.20;43.00;;;;;;6137719;23;20136;-83
2020/12/26 12:24:33;;;;;;;12.15;1.35;;;17.20;42.90;;;;;;6135399;23;20147;-81
2020/12/26 12:27:00;;;;;;;9.50;1.40;;;17.20;42.90;;;;;;6161523;23;20134;-81
2020/12/26 12:29:26;;;;;;;11.63;1.40;;;17.20;42.90;;;;;;6163496;23;20605;-81
2020/12/26 12:31:52;;;;;;;3.00;1.00;;;17.20;42.80;;;;;;6165557;23;20163;-82
2020/12/26 12:34:19;;;;;;;12.93;1.30;;;17.20;43.00;;;;;;6165041;23;20136;-81
2020/12/26 12:36:45;;;;;;;6.20;1.15;;;17.20;43.00;;;;;;6167561;23;20429;-81
2020/12/26 12:39:13;;;;;;;6.00;1.10;;;17.20;42.80;;;;;;6168449;23;20177;-81
2020/12/26 12:41:40;;;;;;;8.05;1.17;;;17.20;42.90;;;;;;6141677;23;20484;-81
2020/12/26 12:44:06;;;;;;;7.68;1.17;;;17.10;43.10;;;;;;6167225;23;20128;-81
2020/12/26 12:46:32;;;;;;;7.15;1.40;;;17.10;43.20;;;;;;6168489;23;20142;-82
2020/12/26 12:48:59;;;;;;;10.98;1.80;;;17.20;43.40;;;;;;6142508;23;20136;-82
2020/12/26 12:51:27;;;;;;;16.85;1.60;;;17.10;43.50;;;;;;6142727;23;20218;-81
2020/12/26 12:53:53;;;;;;;8.57;1.30;;;17.10;43.70;;;;;;6168207;23;20493;-81
2020/12/26 12:56:20;;;;;;;13.77;1.70;;;17.10;43.70;;;;;;6168539;23;20147;-82
2020/12/26 12:58:48;;;;;;;11.27;1.40;;;17.10;43.80;;;;;;6168881;23;20202;-81
2020/12/26 13:01:13;;;;;;;14.98;1.58;;;17.10;43.70;;;;;;6140953;23;20610;-81
2020/12/26 13:03:41;;;;;;;11.60;1.45;;;17.20;43.50;;;;;;6142800;23;20144;-81
2020/12/26 13:06:15;;;;;;;8.73;1.10;;;17.20;43.60;;;;;;6167215;23;20572;-81
2020/12/26 13:08:42;;;;;;;7.63;1.27;;;17.20;43.70;;;;;;6140263;23;20147;-79
2020/12/26 13:11:07;;;;;;;6.80;1.50;;;17.20;43.50;;;;;;6116323;23;20152;-80
2020/12/26 13:13:35;;;;;;;12.95;1.38;;;17.10;43.40;;;;;;6095272;23;20178;-82
2020/12/26 13:16:08;;;;;;;9.32;1.10;;;17.10;43.40;;;;;;6094195;23;20468;-82
2020/12/26 13:18:35;;;;;;;9.68;1.50;;;17.20;43.50;;;;;;6118715;23;20164;-82
2020/12/26 13:21:04;;;;;;;7.85;1.23;;;17.10;43.40;;;;;;6095606;23;20253;-82
2020/12/26 13:23:30;;;;;;;9.60;1.50;;;17.20;43.30;;;;;;6119214;23;20204;-82
2020/12/26 13:26:00;;;;;;;12.77;1.48;;;17.20;43.30;;;;;;6095669;23;20151;-82
2020/12/26 13:28:33;;;;;;;13.23;1.67;;;17.20;43.40;;;;;;6118877;23;20567;-82
2020/12/26 13:30:59;;;;;;;11.98;1.52;;;17.20;43.40;;;;;;6120622;23;20143;-81
2020/12/26 13:33:28;;;;;;;9.60;1.30;;;17.20;43.20;;;;;;6096073;23;20159;-82
2020/12/26 13:36:15;;;;;;;6.90;1.00;;;17.30;43.20;;;;;;6094825;23;20227;-82
2020/12/26 13:39:10;;;;;;;9.30;1.33;;;17.20;43.20;;;;;;6167982;23;20146;-82
2020/12/26 13:41:58;;;;;;;10.60;1.45;;;17.30;43.30;;;;;;6142774;23;20203;-82
2020/12/26 13:44:33;;;;;;;6.85;1.42;;;17.30;43.40;;;;;;6144934;23;20163;-81
2020/12/26 13:47:08;;;;;;;6.00;1.13;;;17.30;43.40;;;;;;6095972;23;20143;-82
2020/12/26 13:49:45;;;;;;;15.25;1.40;;;17.20;43.50;;;;;;6144104;23;20136;-81
2020/12/26 13:52:17;;;;;;;5.70;1.20;;;17.20;43.60;;;;;;6142938;23;20213;-80
2020/12/26 13:54:45;;;;;;;7.28;1.23;;;17.30;43.50;;;;;;6138312;23;20162;-79
2020/12/26 14:04:08;;;;;;;9.73;1.35;;;17.40;43.60;;;;;;6168428;23;20169;-80
2020/12/26 14:06:44;;;;;;;8.70;1.10;;;17.30;43.60;;;;;;6142655;23;20193;-80
2020/12/26 14:10:08;;;;;;;;;;;;;;;;;;;;;
2020/12/26 14:19:33;;;;;;;10.15;1.85;;;17.30;43.80;;;;;;6170825;23;20194;-80
2020/12/26 14:21:59;;;;;;;13.18;1.50;;;17.30;43.90;;;;;;6116300;23;20151;-79
2020/12/26 14:24:25;;;;;;;12.75;1.77;;;17.30;43.90;;;;;;6167856;23;20150;-79
2020/12/26 14:31:11;;;;;;;14.27;1.65;;;17.30;44.10;;;;;;6170288;23;20167;-80
2020/12/26 14:38:16;;;;;;;;;;;;;;;;;;;;;
2020/12/26 14:42:02;;;;;;;9.20;1.67;;;17.30;43.80;;;;;;6048551;23;20206;-80
2020/12/26 14:44:40;;;;;;;5.78;1.33;;;17.30;43.90;;;;;;5960883;24;20167;-79
2020/12/26 14:47:06;;;;;;;8.73;1.80;;;17.30;43.80;;;;;;5967934;24;20154;-79
2020/12/26 14:49:46;;;;;;;5.50;1.42;;;17.30;43.90;;;;;;5944789;24;20156;-79
2020/12/26 14:52:12;;;;;;;7.90;1.48;;;17.30;43.70;;;;;;5953498;24;20200;-79
2020/12/26 14:55:17;;;;;;;8.48;1.23;;;17.30;43.90;;;;;;5894125;24;20169;-78
2020/12/26 14:57:47;;;;;;;8.80;1.52;;;17.30;44.00;;;;;;5917074;24;20165;-79
2020/12/26 15:00:18;;;;;;;6.50;1.35;;;17.30;43.90;;;;;;5893792;24;20633;-79
2020/12/26 15:02:45;;;;;;;6.63;1.95;;;17.30;43.90;;;;;;5939791;24;20149;-79
2020/12/26 15:05:38;;;;;;;4.88;1.20;;;17.30;44.00;;;;;;5938976;24;20153;-79
2020/12/26 15:11:48;;;;;;;9.45;1.27;;;17.30;44.20;;;;;;6008958;23;20162;-79
2020/12/26 15:14:23;;;;;;;4.43;1.08;;;17.30;44.00;;;;;;6028558;23;20161;-79
2020/12/26 15:17:24;;;;;;;6.57;1.23;;;17.30;43.90;;;;;;6053626;23;20142;-79
2020/12/26 15:20:16;;;;;;;7.70;1.13;;;17.20;43.90;;;;;;5991041;23;20206;-80
2020/12/26 15:23:25;;;;;;;5.75;1.00;;;17.30;44.20;;;;;;6024429;23;20246;-79
2020/12/26 15:26:41;;;;;;;6.40;1.50;;;17.30;44.30;;;;;;5999442;23;20187;-79
2020/12/26 15:29:24;;;;;;;6.55;1.38;;;17.20;44.40;;;;;;5967286;24;20264;-79
2020/12/26 15:32:43;;;;;;;5.63;1.40;;;17.20;44.10;;;;;;5967369;24;20237;-79
2020/12/26 15:39:28;;;;;;;10.63;1.27;;;17.30;44.10;;;;;;5967670;24;20212;-80
2020/12/26 15:42:56;;;;;;;;;;;;;;;;;;;;;
2020/12/26 15:46:14;;;;;;;;;;;;;;;;;;;;;
2020/12/26 15:49:09;;;;;;;8.68;1.52;;;17.20;44.10;;;;;;5871148;24;20185;-80
2020/12/26 15:51:48;;;;;;;5.45;1.58;;;17.20;44.40;;;;;;5892937;24;20195;-79
2020/12/26 16:01:32;;;;;;;6.07;1.20;;;17.20;44.10;;;;;;5923571;24;20183;-80
2020/12/26 16:04:19;;;;;;;7.15;1.42;;;17.20;44.20;;;;;;5978116;23;20166;-80
2020/12/26 16:07:35;;;;;;;6.07;1.20;;;17.20;44.40;;;;;;6056276;23;20149;-80
2020/12/26 16:10:16;;;;;;;5.20;1.38;;;17.20;44.30;;;;;;6078885;23;20168;-80
2020/12/26 16:13:31;;;;;;;5.55;1.17;;;17.20;44.30;;;;;;6026394;23;20184;-80
2020/12/26 16:17:10;;;;;;;;;;;;;;;;;;;;;
2020/12/26 16:20:12;;;;;;;4.15;1.17;;;17.20;45.00;;;;;;6129616;23;20210;-80
2020/12/26 16:23:14;;;;;;;4.72;1.08;;;17.20;44.40;;;;;;6142584;23;20238;-80
2020/12/26 16:29:37;;;;;;;3.65;1.38;;;17.20;44.50;;;;;;6050954;23;20169;-79
2020/12/26 16:33:08;;;;;;;6.00;1.30;;;17.10;44.50;;;;;;5983341;23;20182;-80
2020/12/26 16:36:04;;;;;;;4.70;1.30;;;17.10;44.40;;;;;;6005100;23;20157;-80
2020/12/26 16:39:06;;;;;;;5.93;1.45;;;17.10;44.30;;;;;;5949836;24;20179;-79
2020/12/26 16:42:03;;;;;;;4.43;1.38;;;17.10;44.60;;;;;;5941719;24;20172;-80
2020/12/26 16:45:02;;;;;;;5.68;1.40;;;17.20;44.50;;;;;;5965923;24;20160;-79
2020/12/26 16:48:04;;;;;;;;;;;;;;;;;;;;;
2020/12/26 16:51:15;;;;;;;4.57;1.23;;;17.20;44.40;;;;;;5963382;24;20155;-80
2020/12/26 16:54:28;;;;;;;8.00;1.30;;;17.10;44.60;;;;;;5955596;24;20234;-80
2020/12/26 16:57:40;;;;;;;;;;;;;;;;;;;;;
2020/12/26 17:00:26;;;;;;;2.38;1.17;;;17.10;44.90;;;;;;5829758;24;20206;-80
2020/12/26 17:03:32;;;;;;;7.72;1.63;;;17.10;44.70;;;;;;5847580;24;20158;-80
2020/12/26 17:06:33;;;;;;;4.55;1.30;;;17.10;45.00;;;;;;5838060;24;20174;-80
2020/12/26 17:09:46;;;;;;;;;;;;;;;;;;;;;
2020/12/26 17:12:53;;;;;;;4.60;1.15;;;17.10;44.70;;;;;;5963576;24;20160;-80
2020/12/26 17:16:19;;;;;;;6.25;1.40;;;17.10;44.80;;;;;;5966236;24;20136;-80
2020/12/26 17:22:36;;;;;;;3.78;1.25;;;17.10;44.80;;;;;;5947070;24;20542;-80
2020/12/26 17:25:28;;;;;;;4.00;1.20;;;17.10;44.70;;;;;;5942966;24;20192;-80
2020/12/26 17:28:05;;;;;;;6.80;1.45;;;17.10;44.80;;;;;;5944711;24;20186;-80
2020/12/26 17:30:38;;;;;;;5.78;1.33;;;17.00;44.70;;;;;;5942524;24;20223;-80
2020/12/26 17:33:19;;;;;;;8.15;1.52;;;17.00;44.90;;;;;;5943006;24;20152;-79
2020/12/26 17:36:04;;;;;;;4.80;1.52;;;17.00;44.80;;;;;;5943298;23;20163;-80
2020/12/26 17:38:53;;;;;;;4.53;1.65;;;17.10;44.90;;;;;;6089165;23;20684;-79
2020/12/26 17:41:46;;;;;;;4.22;1.23;;;17.10;45.00;;;;;;6089701;23;20266;-80
2020/12/26 17:44:25;;;;;;;6.45;1.40;;;17.00;45.00;;;;;;6025236;23;20162;-80
2020/12/26 17:47:00;;;;;;;3.38;1.30;;;17.00;45.00;;;;;;6026593;23;20157;-80
2020/12/26 17:50:06;;;;;;;;;;;;;;;;;;;;;
2020/12/26 17:53:05;;;;;;;2.28;1.35;;;17.00;45.30;;;;;;6030660;23;20170;-80
2020/12/26 17:55:49;;;;;;;6.22;1.40;;;17.00;45.40;;;;;;6069944;23;20172;-80
2020/12/26 17:58:21;;;;;;;5.25;1.33;;;17.00;45.50;;;;;;6008335;23;20525;-79
2020/12/26 18:01:15;;;;;;;4.07;1.30;;;17.00;45.60;;;;;;6078080;23;20173;-80
2020/12/26 18:03:46;;;;;;;2.17;1.30;;;16.90;45.60;;;;;;5919973;24;20160;-80
2020/12/26 18:06:25;;;;;;;4.07;1.48;;;16.90;45.60;;;;;;5942151;24;20177;-80
2020/12/26 18:09:20;;;;;;;6.63;1.10;;;17.00;45.50;;;;;;5942656;24;20608;-80
2020/12/26 18:15:14;;;;;;;3.47;1.20;;;17.00;45.30;;;;;;5961259;23;20159;-80
2020/12/26 18:18:30;;;;;;;2.58;1.20;;;17.00;45.30;;;;;;6020328;23;20162;-81
2020/12/26 18:21:03;;;;;;;3.00;1.27;;;17.00;45.30;;;;;;5979929;23;20221;-80
2020/12/26 18:24:04;;;;;;;3.05;1.23;;;16.90;45.50;;;;;;6020611;23;20201;-80
2020/12/26 18:26:42;;;;;;;2.63;1.20;;;16.90;45.60;;;;;;6020738;23;20158;-80
2020/12/26 18:29:35;;;;;;;4.00;1.48;;;16.90;45.80;;;;;;6021029;23;20159;-80
2020/12/26 18:32:36;;;;;;;4.30;1.23;;;16.90;46.50;;;;;;6020445;23;20207;-80
2020/12/26 18:35:09;;;;;;;3.47;1.38;;;16.90;45.60;;;;;;6007320;23;20263;-80
2020/12/26 18:38:51;;;;;;;4.07;1.40;;;16.90;45.70;;;;;;6021140;23;20162;-80
2020/12/26 18:42:00;;;;;;;4.68;1.38;;;16.90;45.60;;;;;;5865359;24;20197;-80
2020/12/26 18:45:24;;;;;;;3.03;1.38;;;17.00;45.60;;;;;;5880476;24;20636;-80
2020/12/26 18:48:33;;;;;;;8.35;1.38;;;17.00;45.50;;;;;;5802166;24;20160;-80
2020/12/26 18:51:28;;;;;;;4.95;1.27;;;16.90;45.70;;;;;;5802103;24;20163;-80
2020/12/26 18:54:08;;;;;;;2.03;1.70;;;16.90;45.80;;;;;;5802195;24;20246;-80
2020/12/26 18:56:38;;;;;;;3.63;1.08;;;16.90;45.80;;;;;;5803371;24;20159;-79
2020/12/26 18:59:13;;;;;;;3.97;1.13;;;16.90;45.90;;;;;;5761239;24;20231;-80
2020/12/26 19:01:44;;;;;;;2.72;1.67;;;16.90;45.70;;;;;;5783032;24;20156;-80
2020/12/26 19:04:44;;;;;;;2.92;1.40;;;16.90;45.60;;;;;;5782701;24;20164;-80
2020/12/26 19:07:22;;;;;;;4.70;1.20;;;16.90;45.60;;;;;;5804321;24;20623;-80
2020/12/26 19:09:57;;;;;;;7.75;1.92;;;16.90;45.70;;;;;;5804125;24;20194;-79
2020/12/26 19:12:38;;;;;;;3.63;1.08;;;16.90;45.80;;;;;;5782496;24;20195;-79
2020/12/26 19:15:14;;;;;;;2.05;1.33;;;16.90;45.80;;;;;;5764311;24;20176;-80
2020/12/26 19:17:55;;;;;;;5.68;1.40;;;16.90;46.10;;;;;;5941283;23;20155;-79
2020/12/26 19:20:30;;;;;;;3.95;1.20;;;16.90;46.00;;;;;;6069344;23;20175;-79
2020/12/26 19:22:59;;;;;;;3.45;1.30;;;16.80;45.80;;;;;;6067647;23;20171;-79
2020/12/26 19:25:41;;;;;;;3.60;1.25;;;16.90;45.90;;;;;;6066665;23;20496;-80
2020/12/26 19:28:23;;;;;;;3.42;1.30;;;16.90;45.80;;;;;;6070569;23;20159;-80
2020/12/26 19:31:10;;;;;;;2.63;1.10;;;16.90;45.90;;;;;;6140380;23;20140;-79
2020/12/26 19:33:58;;;;;;;2.65;1.33;;;16.90;45.90;;;;;;6139937;23;20132;-80
2020/12/26 19:36:50;;;;;;;3.65;1.23;;;16.90;45.90;;;;;;6115824;23;20152;-79
2020/12/26 19:39:23;;;;;;;2.03;1.02;;;16.90;45.90;;;;;;6092895;23;20143;-79
2020/12/26 19:41:55;;;;;;;3.53;1.55;;;16.90;45.70;;;;;;6065677;23;20152;-80
2020/12/26 19:44:26;;;;;;;4.30;1.52;;;16.90;45.80;;;;;;6089666;23;20187;-80
2020/12/26 19:47:42;;;;;;;2.72;1.42;;;16.90;46.00;;;;;;6067013;23;20152;-79
2020/12/26 19:50:44;;;;;;;2.75;0.93;;;16.80;46.10;;;;;;6022053;23;20650;-80
2020/12/26 19:53:33;;;;;;;4.00;1.38;;;16.90;46.20;;;;;;5998336;23;20573;-80
2020/12/26 19:56:40;;;;;;;;;;;;;;;;;;;;;
2020/12/26 19:59:23;;;;;;;3.15;1.20;;;16.80;46.00;;;;;;6031011;23;20177;-80
2020/12/26 20:02:05;;;;;;;3.67;1.58;;;16.80;46.00;;;;;;6026494;23;20150;-80
2020/12/26 20:04:34;;;;;;;1.08;0.93;;;16.90;46.00;;;;;;6025941;23;20162;-79
2020/12/26 20:10:19;;;;;;;3.97;1.40;;;16.80;45.90;;;;;;5993515;24;20284;-80
2020/12/26 20:12:57;;;;;;;6.07;1.70;;;16.90;46.00;;;;;;5971470;24;20163;-80
2020/12/26 20:16:06;;;;;;;2.63;1.13;;;16.90;46.00;;;;;;5991442;24;20600;-80
2020/12/26 20:18:52;;;;;;;3.38;1.25;;;16.80;46.20;;;;;;5961043;24;20214;-79
2020/12/26 20:21:31;;;;;;;3.83;1.55;;;16.80;46.10;;;;;;5993048;24;20190;-79
2020/12/26 20:24:29;;;;;;;2.20;1.35;;;16.70;46.10;;;;;;5972452;24;20135;-80
2020/12/26 20:26:58;;;;;;;3.38;1.10;;;16.80;46.20;;;;;;6031283;23;20205;-80
2020/12/26 20:29:53;;;;;;;4.05;1.30;;;16.80;46.20;;;;;;6057608;23;20134;-79
2020/12/26 20:32:27;;;;;;;3.67;1.45;;;16.80;46.30;;;;;;6079668;23;20504;-80
2020/12/26 20:35:28;;;;;;;3.40;1.02;;;16.80;46.10;;;;;;6052311;23;20149;-80
2020/12/26 20:38:06;;;;;;;2.17;1.48;;;16.80;46.20;;;;;;6080420;23;20153;-79
2020/12/26 20:41:08;;;;;;;2.97;1.20;;;16.80;46.20;;;;;;6060713;23;20192;-80
2020/12/26 20:43:58;;;;;;;1.73;1.23;;;16.80;46.20;;;;;;6078022;23;20222;-79
2020/12/26 20:46:33;;;;;;;2.85;1.20;;;16.80;46.10;;;;;;6082746;23;20153;-80
2020/12/26 20:49:25;;;;;;;3.33;1.20;;;16.80;46.20;;;;;;6145624;23;20606;-79
2020/12/26 20:52:10;;;;;;;2.42;1.17;;;16.80;46.10;;;;;;6144081;23;20164;-79
2020/12/26 20:54:40;;;;;;;1.85;1.25;;;16.80;46.20;;;;;;6119329;23;20198;-79
2020/12/26 20:57:15;;;;;;;5.07;1.42;;;16.80;46.30;;;;;;6117732;23;20170;-79
2020/12/26 20:59:46;;;;;;;3.58;1.20;;;16.80;46.30;;;;;;6144903;23;20186;-79
2020/12/26 21:02:24;;;;;;;3.97;1.27;;;16.80;46.30;;;;;;6095642;23;20151;-79
2020/12/26 21:05:10;;;;;;;2.40;1.00;;;16.80;46.20;;;;;;6119734;23;20207;-79
2020/12/26 21:08:08;;;;;;;2.85;1.10;;;16.80;46.20;;;;;;6144671;23;20131;-79
2020/12/26 21:10:46;;;;;;;4.57;1.30;;;16.80;46.20;;;;;;6049297;23;20161;-79
2020/12/26 21:13:21;;;;;;;3.30;1.45;;;16.80;46.30;;;;;;6008401;23;20164;-79
2020/12/26 21:16:36;;;;;;;;;;;;;;;;;;;;;
2020/12/26 21:19:31;;;;;;;1.83;1.13;;;16.80;46.30;;;;;;5960880;23;20208;-79
2020/12/26 21:25:37;;;;;;;3.35;1.30;;;16.70;46.40;;;;;;6033449;23;20232;-80
2020/12/26 21:28:25;;;;;;;;;;;;;;;;;;;;;
2020/12/26 21:31:06;;;;;;;1.45;1.20;;;16.70;46.50;;;;;;6051492;23;20166;-80
2020/12/26 21:33:52;;;;;;;1.98;1.30;;;16.80;46.60;;;;;;6027169;23;20363;-79
2020/12/26 21:36:53;;;;;;;3.55;1.15;;;16.70;46.60;;;;;;6027057;23;20190;-79
2020/12/26 21:39:39;;;;;;;3.70;1.17;;;16.70;46.40;;;;;;6030321;23;20218;-79
2020/12/26 21:42:50;;;;;;;;;;;;;;;;;;;;;
2020/12/26 21:45:38;;;;;;;3.67;1.33;;;16.80;46.40;;;;;;6028958;23;20169;-79
2020/12/26 21:48:17;;;;;;;4.07;1.33;;;16.80;46.30;;;;;;6098300;23;20183;-79
2020/12/26 21:51:03;;;;;;;3.40;1.40;;;16.80;46.20;;;;;;6120157;23;20162;-80
2020/12/26 21:53:47;;;;;;;1.88;1.00;;;16.80;47.10;;;;;;6119464;23;20472;-79
2020/12/26 21:56:50;;;;;;;3.38;1.40;;;16.80;46.30;;;;;;6169282;23;20191;-79
2020/12/26 21:59:48;;;;;;;1.52;1.00;;;16.80;46.40;;;;;;6050013;23;20209;-79
2020/12/26 22:05:43;;;;;;;1.35;1.10;;;16.80;46.40;;;;;;6032200;23;20187;-79
2020/12/26 22:08:20;;;;;;;4.15;1.50;;;16.80;46.40;;;;;;6004299;23;20149;-79
2020/12/26 22:11:23;;;;;;;4.13;1.35;;;16.80;46.30;;;;;;6003879;23;20160;-79
2020/12/26 22:14:02;;;;;;;2.70;1.20;;;16.80;46.40;;;;;;5975095;23;20158;-79
2020/12/26 22:17:11;;;;;;;;;;;;;;;;;;;;;
2020/12/26 22:19:52;;;;;;;2.00;1.23;;;16.80;46.60;;;;;;6001988;23;20650;-80
2020/12/26 22:22:32;;;;;;;1.27;0.93;;;16.70;46.50;;;;;;5997198;23;20162;-80
2020/12/26 22:28:44;;;;;;;2.63;1.25;;;16.70;46.50;;;;;;6005098;23;20163;-79
2020/12/26 22:31:33;;;;;;;3.00;1.15;;;16.70;46.50;;;;;;5948984;24;20167;-79
2020/12/26 22:34:13;;;;;;;1.92;1.02;;;16.80;46.50;;;;;;5967238;24;20627;-80
2020/12/26 22:37:09;;;;;;;3.47;1.30;;;16.80;46.60;;;;;;6002772;23;20169;-79
2020/12/26 22:40:13;;;;;;;1.50;0.82;;;16.70;46.40;;;;;;5991515;23;20662;-79
2020/12/26 22:43:05;;;;;;;2.72;1.05;;;16.70;46.60;;;;;;6005667;23;20170;-79
2020/12/26 22:46:00;;;;;;;2.38;1.17;;;16.70;46.60;;;;;;5976375;23;20197;-79
2020/12/26 22:48:50;;;;;;;3.65;1.00;;;16.70;46.60;;;;;;5974456;23;20192;-79
2020/12/26 22:51:37;;;;;;;2.85;1.10;;;16.80;46.60;;;;;;6051070;23;20244;-79
2020/12/26 22:54:24;;;;;;;4.25;1.40;;;16.70;46.60;;;;;;6079165;23;20157;-79
2020/12/26 22:57:13;;;;;;;1.80;0.93;;;16.80;46.60;;;;;;6033593;23;20153;-79
2020/12/26 23:00:04;;;;;;;2.75;1.30;;;16.70;46.60;;;;;;6033148;23;20244;-80
2020/12/26 23:02:46;;;;;;;1.83;1.10;;;16.70;46.60;;;;;;6033133;23;20172;-79
2020/12/26 23:05:20;;;;;;;2.33;1.38;;;16.70;46.70;;;;;;6036231;23;20164;-79
2020/12/26 23:08:19;;;;;;;3.72;1.40;;;16.70;46.70;;;;;;6059243;23;20230;-79
2020/12/26 23:11:13;;;;;;;2.33;1.17;;;16.70;46.60;;;;;;6144976;23;20162;-79
2020/12/26 23:14:11;;;;;;;1.60;1.27;;;16.80;46.60;;;;;;6143448;23;20158;-79
2020/12/26 23:17:00;;;;;;;3.20;1.20;;;16.80;46.60;;;;;;6144275;23;20201;-79
2020/12/26 23:19:52;;;;;;;1.67;1.10;;;16.70;46.60;;;;;;6144629;23;20135;-80
2020/12/26 23:22:36;;;;;;;3.08;1.10;;;16.70;46.70;;;;;;6121264;23;20156;-79
2020/12/26 23:25:22;;;;;;;1.85;1.20;;;16.80;46.80;;;;;;6096801;23;20152;-79
2020/12/26 23:28:21;;;;;;;2.65;1.40;;;16.60;46.80;;;;;;6097235;23;20216;-80
2020/12/26 23:32:02;;;;;;;2.78;1.27;;;16.70;46.90;;;;;;6091101;23;20537;-80
2020/12/26 23:35:13;;;;;;;2.75;1.15;;;16.60;47.00;;;;;;6106466;23;20183;-80
2020/12/26 23:37:47;;;;;;;2.33;1.20;;;16.70;46.90;;;;;;6096658;23;20553;-78
2020/12/26 23:40:29;;;;;;;2.75;1.05;;;16.70;46.90;;;;;;6077188;23;20243;-78
2020/12/26 23:43:18;;;;;;;;;;;;;;;;;;;;;
2020/12/26 23:45:58;;;;;;;2.28;1.30;;;16.70;46.80;;;;;;6107235;23;20160;-78
2020/12/26 23:48:29;;;;;;;3.53;1.20;;;16.70;46.90;;;;;;6105136;23;20179;-78
2020/12/26 23:51:00;;;;;;;1.67;1.15;;;16.70;47.00;;;;;;6106289;23;20191;-78
2020/12/26 23:53:44;;;;;;;1.33;1.15;;;16.70;46.90;;;;;;6108020;23;20141;-79
2020/12/26 23:56:16;;;;;;;3.03;1.10;;;16.70;46.80;;;;;;6082349;23;20200;-79
2020/12/26 23:58:45;;;;;;;2.40;0.90;;;16.70;46.90;;;;;;6105402;23;20235;-78
